Flight Track Log - Related Links

Times and Time Zones

All times are in EDT time to prevent confusion due to time zone crossing. See the N680AN flight status page for this flight to view local times or setup timezone preferences in your user account.

Time Position Orientation Groundspeed Altitude Reporting Facility
EDT Latitude Longitude Course Direction KTS MPH feet Rate Location/Type
Tue 12:11:17 PM 47.4119 -122.3067 181° South 170 196 2,200  Level Seattle Center
Tue 12:12:23 PM 47.3369 -122.3089 181° South 264 304 5,000 2,756 Climbing Seattle Center
Tue 12:13:32 PM 47.2600 -122.3050 178° South 266 306 8,400 2,538 Climbing Seattle Center
Tue 12:14:33 PM 47.1850 -122.2658 160° South 289 333 10,500 1,672 Climbing Seattle Center
Tue 12:15:34 PM 47.0931 -122.2208 162° South 352 405 11,800 1,686 Climbing Seattle Center
Tue 12:16:34 PM 46.9939 -122.1719 161° South 378 435 13,900 2,132 Climbing Seattle Center
Tue 12:17:35 PM 46.8883 -122.1192 161° South 403 464 16,100 1,918 Climbing Seattle Center
Tue 12:18:36 PM 46.7800 -122.0661 161° South 415 478 17,800 2,164 Climbing Seattle Center
Tue 12:19:37 PM 46.6425 -122.0011 162° South 432 497 20,500 2,262 Climbing Seattle Center
Tue 12:20:38 PM 46.5669 -121.8542 127° Southeast 451 519 22,400 1,721 Climbing Seattle Center
Tue 12:21:39 PM 46.5033 -121.6928 120° Southeast 464 534 24,000 1,574 Climbing Seattle Center
Tue 12:22:40 PM 46.4333 -121.5158 120° Southeast 496 571 25,600 1,587 Climbing Seattle Center
Tue 12:23:40 PM 46.3597 -121.3369 121° Southeast 514 592 27,200 1,537 Climbing Seattle Center
Tue 12:24:41 PM 46.2853 -121.1500 120° Southeast 533 613 28,700 1,377 Climbing Seattle Center
Tue 12:25:42 PM 46.2086 -120.9583 120° Southeast 548 631 30,000 1,525 Climbing Seattle Center
Tue 12:26:43 PM 46.1278 -120.7669 121° Southeast 556 640 31,800 1,918 Climbing Seattle Center
Tue 12:27:44 PM 46.0492 -120.5747 120° Southeast 558 642 33,900 1,820 Climbing Seattle Center
Tue 12:28:45 PM 45.9719 -120.3892 121° Southeast 543 625 35,500 1,475 Climbing Seattle Center
Tue 12:29:46 PM 45.8939 -120.2061 121° Southeast 539 620 36,900 1,180 Climbing Seattle Center
Tue 12:30:47 PM 45.8161 -120.0214 121° Southeast 539 620 37,900 1,041 Climbing Seattle Center
Tue 12:31:47 PM 45.7392 -119.8400 121° Southeast 534 615 39,000 545 Climbing Seattle Center
Tue 12:32:48 PM 45.6614 -119.6611 122° Southeast 529 609 39,000  Level Seattle Center
Tue 12:33:49 PM 45.5861 -119.4839 121° Southeast 524 603 39,000  Level Seattle Center
Tue 12:34:50 PM 45.4961 -119.2761 122° Southeast 515 593 39,000  Level Seattle Center
Tue 12:35:51 PM 45.4214 -119.1053 122° Southeast 510 587 39,000  Level Seattle Center
Tue 12:36:52 PM 45.3450 -118.9322 122° Southeast 506 582 39,000  Level Seattle Center
Tue 12:37:53 PM 45.2717 -118.7678 122° Southeast 503 579 39,000  Level Seattle Center
Tue 12:38:54 PM 45.1961 -118.5994 122° Southeast 504 580 39,000  Level Seattle Center
Tue 12:39:55 PM 45.1217 -118.4297 122° Southeast 507 583 39,000  Level Seattle Center
Tue 12:40:55 PM 45.0453 -118.2597 122° Southeast 510 587 39,000  Level Seattle Center
Tue 12:41:56 PM 44.9706 -118.0964 123° Southeast 513 590 39,000  Level Seattle Center
Tue 12:42:57 PM 44.8850 -117.9033 122° Southeast 518 596 39,000  Level Seattle Center
Tue 12:43:58 PM 44.8144 -117.7344 120° Southeast 522 601 39,000  Level Seattle Center
Tue 12:44:59 PM 44.7519 -117.5558 116° Southeast 530 610 39,000  Level Seattle Center
Tue 12:46:00 PM 44.6792 -117.3503 116° Southeast 528 608 39,000  Level Seattle Center
Tue 12:47:01 PM 44.6172 -117.1739 116° Southeast 526 605 39,000  Level Seattle Center
Tue 12:48:02 PM 44.5531 -116.9986 117° Southeast 528 608 39,000  Level Seattle Center
Tue 12:48:17 PM 44.5297 -116.9381 118° Southeast 533 613 39,000  Level Salt Lake Center
Tue 12:49:18 PM 44.4564 -116.7331 117° Southeast 530 610 39,000  Level Salt Lake Center
Tue 12:50:20 PM 44.3931 -116.5564 117° Southeast 532 612 39,000  Level Salt Lake Center
Tue 12:51:22 PM 44.3294 -116.3825 117° Southeast 531 611 39,000  Level Salt Lake Center
Tue 12:52:23 PM 44.2558 -116.1814 117° Southeast 532 612 39,000  Level Salt Lake Center
Tue 12:53:25 PM 44.1828 -115.9806 117° Southeast 527 606 39,000  Level Salt Lake Center
Tue 12:54:26 PM 44.1189 -115.8092 117° Southeast 526 605 39,000  Level Salt Lake Center
Tue 12:55:28 PM 44.0542 -115.6367 118° Southeast 526 605 39,000  Level Salt Lake Center
Tue 12:56:29 PM 43.9797 -115.4367 117° Southeast 523 602 39,000  Level Salt Lake Center
Tue 12:57:31 PM 43.9147 -115.2658 118° Southeast 525 604 39,000  Level Salt Lake Center
Tue 12:58:32 PM 43.8386 -115.0667 118° Southeast 524 603 39,000  Level Salt Lake Center
Tue 12:59:34 PM 43.7742 -114.8964 118° Southeast 522 601 39,000  Level Salt Lake Center
Tue 01:00:35 PM 43.7092 -114.7278 118° Southeast 520 598 39,000  Level Salt Lake Center
Tue 01:01:37 PM 43.6325 -114.5286 118° Southeast 525 604 39,000  Level Salt Lake Center
Tue 01:02:38 PM 43.5675 -114.3600 118° Southeast 521 600 39,000  Level Salt Lake Center
Tue 01:03:40 PM 43.4881 -114.1617 119° Southeast 526 605 39,000  Level Salt Lake Center
Tue 01:04:41 PM 43.4214 -113.9914 118° Southeast 528 608 39,000  Level Salt Lake Center
Tue 01:05:43 PM 43.3531 -113.8192 119° Southeast 530 610 39,000  Level Salt Lake Center
Tue 01:06:44 PM 43.2711 -113.6192 119° Southeast 536 617 39,000  Level Salt Lake Center
Tue 01:07:46 PM 43.2028 -113.4472 119° Southeast 538 619 39,000  Level Salt Lake Center
Tue 01:08:47 PM 43.1208 -113.2486 119° Southeast 538 619 39,000  Level Salt Lake Center
Tue 01:09:48 PM 43.0508 -113.0767 119° Southeast 539 620 39,000  Level Salt Lake Center
Tue 01:10:50 PM 42.9686 -112.8806 120° Southeast 538 619 39,000  Level Salt Lake Center
Tue 01:11:51 PM 42.8975 -112.7106 120° Southeast 540 621 39,000  Level Salt Lake Center
Tue 01:12:52 PM 42.8197 -112.5475 123° Southeast 537 618 39,000  Level Salt Lake Center
Tue 01:13:54 PM 42.7206 -112.3678 127° Southeast 533 613 39,000  Level Salt Lake Center
Tue 01:14:55 PM 42.6353 -112.2150 127° Southeast 539 620 39,000  Level Salt Lake Center
Tue 01:15:56 PM 42.5475 -112.0533 126° Southeast 531 611 39,000  Level Salt Lake Center
Tue 01:16:58 PM 42.4572 -111.8939 127° Southeast 532 612 39,000  Level Salt Lake Center
Tue 01:17:59 PM 42.3683 -111.7333 127° Southeast 534 615 39,000  Level Salt Lake Center
Tue 01:19:00 PM 42.2794 -111.5753 127° Southeast 530 610 39,000  Level Salt Lake Center
Tue 01:20:01 PM 42.1744 -111.3867 127° Southeast 523 602 39,000  Level Salt Lake Center
Tue 01:21:03 PM 42.0867 -111.2336 128° Southeast 517 595 39,000  Level Salt Lake Center
Tue 01:22:04 PM 42.0006 -111.0814 127° Southeast 513 590 39,000  Level Salt Lake Center
Tue 01:23:06 PM 41.9108 -110.9261 128° Southeast 508 585 39,000  Level Salt Lake Center
Tue 01:24:07 PM 41.8297 -110.7814 127° Southeast 509 586 39,000  Level Salt Lake Center
Tue 01:25:08 PM 41.7333 -110.6156 128° Southeast 507 583 39,000  Level Salt Lake Center
Tue 01:26:10 PM 41.6489 -110.4706 128° Southeast 515 593 39,000  Level Salt Lake Center
Tue 01:27:11 PM 41.5619 -110.3253 129° Southeast 525 604 39,000  Level Salt Lake Center
Tue 01:28:13 PM 41.4617 -110.1519 128° Southeast 530 610 39,000  Level Salt Lake Center
Tue 01:29:14 PM 41.3750 -110.0064 128° Southeast 527 606 39,000  Level Salt Lake Center
Tue 01:30:16 PM 41.2742 -109.8331 128° Southeast 532 612 39,000  Level Salt Lake Center
Tue 01:31:17 PM 41.1856 -109.6861 129° Southeast 535 616 39,000  Level Salt Lake Center
Tue 01:32:19 PM 41.0825 -109.5142 128° Southeast 538 619 39,000  Level Salt Lake Center
Tue 01:33:20 PM 40.9933 -109.3697 129° Southeast 535 616 39,000  Level Salt Lake Center
Tue 01:34:22 PM 40.8881 -109.2572 141° Southeast 517 595 39,000  Level Salt Lake Center
Tue 01:35:23 PM 40.7650 -109.1261 141° Southeast 512 589 39,000  Level Salt Lake Center
Tue 01:36:25 PM 40.6600 -109.0167 142° Southeast 506 582 39,000  Level Salt Lake Center
Tue 01:37:26 PM 40.5492 -108.8997 141° Southeast 504 580 39,000  Level Salt Lake Center
Tue 01:37:42 PM 40.5164 -108.8592 137° Southeast 496 571 39,000  Level Denver Center
Tue 01:38:44 PM 40.3989 -108.7311 140° Southeast 491 565 39,000  Level Denver Center
Tue 01:39:29 PM 40.3297 -108.6408 135° Southeast 491 565 39,000  Level Salt Lake Center
Tue 01:39:46 PM 40.3114 -108.6053 124° Southeast 490 564 39,000  Level Denver Center
Tue 01:40:48 PM 40.2339 -108.4636 126° Southeast 495 570 39,000  Level Denver Center
Tue 01:41:50 PM 40.1425 -108.3000 126° Southeast 497 572 39,000  Level Denver Center
Tue 01:42:52 PM 40.0650 -108.1614 126° Southeast 494 568 39,000  Level Denver Center
Tue 01:43:54 PM 39.9733 -108.0006 127° Southeast 494 568 39,000  Level Denver Center
Tue 01:44:56 PM 39.8958 -107.8628 126° Southeast 491 565 39,000  Level Denver Center
Tue 01:45:58 PM 39.8036 -107.7019 127° Southeast 495 570 39,000  Level Denver Center
Tue 01:47:00 PM 39.7253 -107.5650 127° Southeast 492 566 39,000  Level Denver Center
Tue 01:48:02 PM 39.6306 -107.4042 127° Southeast 498 573 39,000  Level Denver Center
Tue 01:49:04 PM 39.5506 -107.2669 127° Southeast 499 574 39,000  Level Denver Center
Tue 01:50:06 PM 39.4572 -107.1056 127° Southeast 502 578 39,000  Level Denver Center
Tue 01:51:08 PM 39.3794 -106.9703 127° Southeast 492 566 39,000  Level Denver Center
Tue 01:52:10 PM 39.3014 -106.8350 127° Southeast 488 562 39,000  Level Denver Center
Tue 01:53:12 PM 39.2083 -106.6789 128° Southeast 491 565 39,000  Level Denver Center
Tue 01:54:14 PM 39.1292 -106.5467 128° Southeast 488 562 39,000  Level Denver Center
Tue 01:55:16 PM 39.0375 -106.3931 128° Southeast 484 557 39,000  Level Denver Center
Tue 01:56:18 PM 38.9600 -106.2617 127° Southeast 483 556 39,000  Level Denver Center
Tue 01:57:20 PM 38.8747 -106.1214 128° Southeast 487 560 39,000  Level Denver Center
Tue 01:58:22 PM 38.7822 -105.9667 127° Southeast 489 563 39,000  Level Denver Center
Tue 01:59:24 PM 38.7028 -105.8364 128° Southeast 486 559 39,000  Level Denver Center
Tue 02:00:25 PM 38.6108 -105.6836 128° Southeast 484 557 39,000  Level Denver Center
Tue 02:01:27 PM 38.5317 -105.5539 128° Southeast 483 556 39,000  Level Denver Center
Tue 02:02:29 PM 38.4428 -105.4036 127° Southeast 477 549 39,000  Level Denver Center
Tue 02:03:31 PM 38.3644 -105.2794 129° Southeast 471 542 39,000  Level Denver Center
Tue 02:04:33 PM 38.2739 -105.1303 128° Southeast 476 548 39,000  Level Denver Center
Tue 02:05:35 PM 38.1953 -105.0058 129° Southeast 473 544 39,000  Level Denver Center
Tue 02:06:37 PM 38.1308 -104.9022 128° Southeast 469 540 39,000  Level Denver Center
Tue 02:07:51 PM 38.0244 -104.7344 129° Southeast 477 549 39,000  Level Denver Center
Tue 02:08:53 PM 37.9183 -104.5650 128° Southeast 481 554 39,000  Level Denver Center
Tue 02:09:55 PM 37.8372 -104.4389 129° Southeast 482 555 39,000  Level Denver Center
Tue 02:10:57 PM 37.7711 -104.3358 129° Southeast 478 550 39,000  Level Denver Center
Tue 02:11:59 PM 37.6589 -104.1614 129° Southeast 474 545 39,000  Level Denver Center
Tue 02:13:01 PM 37.5778 -104.0378 130° Southeast 476 548 39,000  Level Denver Center
Tue 02:14:03 PM 37.5014 -103.9136 128° Southeast 475 547 39,000  Level Denver Center
Tue 02:15:05 PM 37.4097 -103.7736 129° Southeast 468 539 39,000  Level Denver Center
Tue 02:16:07 PM 37.3328 -103.6536 129° Southeast 463 533 39,000  Level Denver Center
Tue 02:17:09 PM 37.2453 -103.5150 128° Southeast 459 528 39,000  Level Denver Center
Tue 02:18:10 PM 37.1672 -103.3947 129° Southeast 458 527 39,000  Level Denver Center
Tue 02:19:12 PM 37.0775 -103.2553 129° Southeast 459 528 39,000  Level Denver Center
Tue 02:20:14 PM 37.0006 -103.1367 129° Southeast 459 528 39,000  Level Denver Center
Tue 02:21:11 PM 36.9217 -103.0214 131° Southeast 458 527 39,000  Level Albuquerque Center
Tue 02:22:13 PM 36.8322 -102.8833 129° Southeast 458 527 39,000  Level Albuquerque Center
Tue 02:23:15 PM 36.7539 -102.7658 130° Southeast 459 528 39,000  Level Albuquerque Center
Tue 02:24:16 PM 36.6781 -102.6475 129° Southeast 458 527 39,000  Level Albuquerque Center
Tue 02:25:18 PM 36.5992 -102.5106 126° Southeast 458 527 39,000  Level Albuquerque Center
Tue 02:26:20 PM 36.5214 -102.3847 128° Southeast 460 529 39,000  Level Albuquerque Center
Tue 02:27:22 PM 36.4444 -102.2608 128° Southeast 455 524 39,000  Level Albuquerque Center
Tue 02:28:23 PM 36.3675 -102.1389 128° Southeast 452 520 39,000  Level Albuquerque Center
Tue 02:29:25 PM 36.2756 -101.9911 128° Southeast 452 520 39,000  Level Albuquerque Center
Tue 02:30:27 PM 36.2000 -101.8678 127° Southeast 450 518 39,000  Level Albuquerque Center
Tue 02:31:29 PM 36.1239 -101.7467 128° Southeast 447 514 39,000  Level Albuquerque Center
Tue 02:32:31 PM 36.0472 -101.6267 128° Southeast 445 512 39,000  Level Albuquerque Center
Tue 02:33:32 PM 35.9711 -101.5033 127° Southeast 447 514 39,000  Level Albuquerque Center
Tue 02:34:34 PM 35.8944 -101.3814 128° Southeast 447 514 39,000  Level Albuquerque Center
Tue 02:35:36 PM 35.8186 -101.2617 128° Southeast 443 510 39,000  Level Albuquerque Center
Tue 02:36:38 PM 35.7283 -101.1178 128° Southeast 441 507 39,000  Level Albuquerque Center
Tue 02:37:39 PM 35.6533 -100.9981 128° Southeast 440 506 39,000  Level Albuquerque Center
Tue 02:38:41 PM 35.5783 -100.8794 128° Southeast 439 505 39,000  Level Albuquerque Center
Tue 02:39:43 PM 35.5025 -100.7611 128° Southeast 439 505 39,000  Level Albuquerque Center
Tue 02:40:45 PM 35.4272 -100.6433 128° Southeast 439 505 39,000  Level Albuquerque Center
Tue 02:41:46 PM 35.3506 -100.5253 129° Southeast 440 506 39,000  Level Albuquerque Center
Tue 02:42:48 PM 35.2742 -100.4069 128° Southeast 441 507 39,000  Level Albuquerque Center
Tue 02:43:50 PM 35.1994 -100.2897 128° Southeast 441 507 39,000  Level Albuquerque Center
Tue 02:44:52 PM 35.1089 -100.1503 128° Southeast 439 505 39,000  Level Albuquerque Center
Tue 02:45:54 PM 35.0328 -100.0339 129° Southeast 440 506 39,000  Level Albuquerque Center
Tue 02:46:55 PM 34.9564 -99.9175 129° Southeast 439 505 39,000  Level Albuquerque Center
Tue 02:47:57 PM 34.8803 -99.8003 128° Southeast 441 507 39,000  Level Albuquerque Center
Tue 02:48:30 PM 34.8319 -99.7306 130° Southeast 441 507 39,000  Level Fort Worth Center
Tue 02:49:30 PM 34.7547 -99.6122 128° Southeast 441 507 39,000  Level Fort Worth Center
Tue 02:50:30 PM 34.6775 -99.4967 129° Southeast 441 507 39,000  Level Fort Worth Center
Tue 02:51:30 PM 34.6169 -99.3817 123° Southeast 414 476 39,000  Level Fort Worth Center
Tue 02:52:30 PM 34.5267 -99.2661 133° Southeast 448 516 39,000  Level Fort Worth Center
Tue 02:53:30 PM 34.4492 -99.1536 130° Southeast 443 510 39,000 -850 Level Fort Worth Center
Tue 02:54:30 PM 34.3794 -99.0567 131° Southeast 428 493 37,300 -2,150 Descending Fort Worth Center
Tue 02:55:30 PM 34.3039 -98.9394 128° Southeast 431 496 34,700 -2,650 Descending Fort Worth Center
Tue 02:56:30 PM 34.2239 -98.8225 130° Southeast 444 511 32,000 -3,000 Descending Fort Worth Center
Tue 02:57:30 PM 34.1417 -98.7058 130° Southeast 449 517 28,700 -3,350 Descending Fort Worth Center
Tue 02:58:30 PM 34.0533 -98.5642 127° Southeast 469 540 25,300 -2,350 Descending Fort Worth Center
Tue 02:59:30 PM 33.9686 -98.4528 133° Southeast 462 532 24,000 -1,550 Descending Fort Worth Center
Tue 03:00:30 PM 33.8922 -98.3417 130° Southeast 448 516 22,200 -2,100 Descending Fort Worth Center
Tue 03:01:30 PM 33.8139 -98.2258 129° Southeast 438 504 19,800 -2,400 Descending Fort Worth Center
Tue 03:02:30 PM 33.7372 -98.1228 132° Southeast 432 497 17,400 -2,150 Descending Fort Worth Center
Tue 03:03:30 PM 33.6667 -98.0250 131° Southeast 413 475 15,500 -1,850 Descending Fort Worth Center
Tue 03:04:30 PM 33.5942 -97.9297 132° Southeast 391 450 13,700 -1,700 Descending Fort Worth Center
Tue 03:05:30 PM 33.5361 -97.8494 131° Southeast 369 425 12,100 -1,300 Descending Fort Worth Center
Tue 03:06:30 PM 33.4633 -97.7547 133° Southeast 359 413 11,100 -800 Descending Fort Worth Center
Tue 03:07:30 PM 33.4114 -97.6872 133° Southeast 323 372 10,500 -900 Descending Fort Worth Center
Tue 03:08:30 PM 33.3572 -97.6175 133° Southeast 296 341 9,300 -1,300 Descending Fort Worth Center
Tue 03:09:30 PM 33.2967 -97.5428 134° Southeast 285 328 7,900 -1,300 Descending Fort Worth Center
Tue 03:10:30 PM 33.2531 -97.4856 132° Southeast 274 315 6,700 -1,300 Descending Fort Worth Center
Tue 03:11:30 PM 33.1986 -97.4158 133° Southeast 269 310 5,300 -1,150 Descending Fort Worth Center
Tue 03:12:30 PM 33.1528 -97.3589 134° Southeast 264 304 4,400 -650 Descending Fort Worth Center
Tue 03:13:30 PM 33.1047 -97.2969 133° Southeast 239 275 4,000 -400 Descending Fort Worth Center

Login

Don't have an account? Register now (free) for customized features, flight alerts, and more!